sensor_id;sensor_type;location;lat;lon;timestamp;P1;durP1;ratioP1;P2;durP2;ratioP2
57663;SDS011;43493;53.098;6.064;2023-02-19T00:01:25;20.63;;;9.17;;
57663;SDS011;43493;53.098;6.064;2023-02-19T00:03:56;26.40;;;9.43;;
57663;SDS011;43493;53.098;6.064;2023-02-19T00:06:24;20.07;;;10.03;;
57663;SDS011;43493;53.098;6.064;2023-02-19T00:08:51;21.30;;;9.77;;
57663;SDS011;43493;53.098;6.064;2023-02-19T00:11:19;17.97;;;9.07;;
57663;SDS011;43493;53.098;6.064;2023-02-19T00:13:47;19.40;;;10.00;;
57663;SDS011;43493;53.098;6.064;2023-02-19T00:16:15;17.73;;;9.90;;
57663;SDS011;43493;53.098;6.064;2023-02-19T00:18:46;24.37;;;10.30;;
57663;SDS011;43493;53.098;6.064;2023-02-19T00:21:12;25.10;;;11.57;;
57663;SDS011;43493;53.098;6.064;2023-02-19T00:23:39;21.17;;;10.53;;
57663;SDS011;43493;53.098;6.064;2023-02-19T00:26:05;22.80;;;11.53;;
57663;SDS011;43493;53.098;6.064;2023-02-19T00:28:33;27.37;;;11.30;;
57663;SDS011;43493;53.098;6.064;2023-02-19T00:33:50;25.93;;;11.30;;
57663;SDS011;43493;53.098;6.064;2023-02-19T00:36:17;27.87;;;11.13;;
57663;SDS011;43493;53.098;6.064;2023-02-19T00:38:43;29.63;;;10.30;;
57663;SDS011;43493;53.098;6.064;2023-02-19T00:41:10;25.07;;;10.23;;
57663;SDS011;43493;53.098;6.064;2023-02-19T00:46:17;27.27;;;10.57;;
57663;SDS011;43493;53.098;6.064;2023-02-19T00:48:45;23.07;;;9.83;;
57663;SDS011;43493;53.098;6.064;2023-02-19T00:51:12;20.77;;;8.77;;
57663;SDS011;43493;53.098;6.064;2023-02-19T00:53:38;22.47;;;9.70;;
57663;SDS011;43493;53.098;6.064;2023-02-19T00:56:04;22.83;;;8.67;;
57663;SDS011;43493;53.098;6.064;2023-02-19T00:58:30;28.10;;;9.77;;
57663;SDS011;43493;53.098;6.064;2023-02-19T01:00:56;20.57;;;8.60;;
57663;SDS011;43493;53.098;6.064;2023-02-19T01:03:22;20.73;;;8.27;;
57663;SDS011;43493;53.098;6.064;2023-02-19T01:05:48;20.10;;;7.67;;
57663;SDS011;43493;53.098;6.064;2023-02-19T01:08:15;20.87;;;7.90;;
57663;SDS011;43493;53.098;6.064;2023-02-19T01:10:40;17.97;;;7.17;;
57663;SDS011;43493;53.098;6.064;2023-02-19T01:13:06;20.20;;;7.23;;
57663;SDS011;43493;53.098;6.064;2023-02-19T01:15:32;22.90;;;7.17;;
57663;SDS011;43493;53.098;6.064;2023-02-19T01:17:58;18.30;;;7.40;;
57663;SDS011;43493;53.098;6.064;2023-02-19T01:20:24;20.17;;;6.60;;
57663;SDS011;43493;53.098;6.064;2023-02-19T01:22:50;16.97;;;6.73;;
57663;SDS011;43493;53.098;6.064;2023-02-19T01:25:16;17.90;;;7.03;;
57663;SDS011;43493;53.098;6.064;2023-02-19T01:27:42;18.63;;;6.80;;
57663;SDS011;43493;53.098;6.064;2023-02-19T01:30:08;23.47;;;6.43;;
57663;SDS011;43493;53.098;6.064;2023-02-19T01:32:34;18.30;;;6.90;;
57663;SDS011;43493;53.098;6.064;2023-02-19T01:35:00;16.70;;;6.00;;
57663;SDS011;43493;53.098;6.064;2023-02-19T01:37:25;15.43;;;6.23;;
57663;SDS011;43493;53.098;6.064;2023-02-19T01:39:51;17.37;;;6.00;;
57663;SDS011;43493;53.098;6.064;2023-02-19T01:42:17;19.60;;;5.77;;
57663;SDS011;43493;53.098;6.064;2023-02-19T01:47:11;13.60;;;6.07;;
57663;SDS011;43493;53.098;6.064;2023-02-19T01:49:41;13.97;;;5.77;;
57663;SDS011;43493;53.098;6.064;2023-02-19T01:52:32;14.73;;;5.77;;
57663;SDS011;43493;53.098;6.064;2023-02-19T01:55:00;16.90;;;7.10;;
57663;SDS011;43493;53.098;6.064;2023-02-19T01:57:30;17.90;;;7.23;;
57663;SDS011;43493;53.098;6.064;2023-02-19T02:00:03;20.90;;;7.67;;
57663;SDS011;43493;53.098;6.064;2023-02-19T02:02:32;16.70;;;7.57;;
57663;SDS011;43493;53.098;6.064;2023-02-19T02:04:57;19.37;;;8.20;;
57663;SDS011;43493;53.098;6.064;2023-02-19T02:07:24;18.30;;;7.90;;
57663;SDS011;43493;53.098;6.064;2023-02-19T02:10:09;22.65;;;7.97;;
57663;SDS011;43493;53.098;6.064;2023-02-19T02:15:10;17.73;;;7.17;;
57663;SDS011;43493;53.098;6.064;2023-02-19T02:17:56;16.53;;;7.20;;
57663;SDS011;43493;53.098;6.064;2023-02-19T02:24:23;18.88;;;7.38;;
57663;SDS011;43493;53.098;6.064;2023-02-19T02:27:14;23.60;;;8.80;;
57663;SDS011;43493;53.098;6.064;2023-02-19T02:30:11;18.67;;;8.00;;
57663;SDS011;43493;53.098;6.064;2023-02-19T02:32:45;28.00;;;9.23;;
57663;SDS011;43493;53.098;6.064;2023-02-19T02:35:22;25.47;;;8.90;;
57663;SDS011;43493;53.098;6.064;2023-02-19T02:37:53;23.93;;;9.27;;
57663;SDS011;43493;53.098;6.064;2023-02-19T02:40:21;24.57;;;10.43;;
57663;SDS011;43493;53.098;6.064;2023-02-19T02:42:47;25.43;;;10.50;;
57663;SDS011;43493;53.098;6.064;2023-02-19T02:50:40;21.33;;;10.35;;
57663;SDS011;43493;53.098;6.064;2023-02-19T02:53:08;24.43;;;10.27;;
57663;SDS011;43493;53.098;6.064;2023-02-19T02:55:57;25.13;;;10.27;;
57663;SDS011;43493;53.098;6.064;2023-02-19T02:58:24;28.47;;;11.77;;
57663;SDS011;43493;53.098;6.064;2023-02-19T03:00:53;24.93;;;12.37;;
57663;SDS011;43493;53.098;6.064;2023-02-19T03:03:42;31.73;;;12.80;;
57663;SDS011;43493;53.098;6.064;2023-02-19T03:06:12;23.60;;;11.73;;
57663;SDS011;43493;53.098;6.064;2023-02-19T03:08:43;26.17;;;10.80;;
57663;SDS011;43493;53.098;6.064;2023-02-19T03:11:19;20.30;;;10.43;;
57663;SDS011;43493;53.098;6.064;2023-02-19T03:14:11;19.63;;;9.10;;
57663;SDS011;43493;53.098;6.064;2023-02-19T03:17:07;19.07;;;9.30;;
57663;SDS011;43493;53.098;6.064;2023-02-19T03:19:59;14.48;;;7.13;;
57663;SDS011;43493;53.098;6.064;2023-02-19T03:22:30;13.73;;;6.60;;
57663;SDS011;43493;53.098;6.064;2023-02-19T03:25:04;12.73;;;7.70;;
57663;SDS011;43493;53.098;6.064;2023-02-19T03:27:53;9.87;;;5.47;;
57663;SDS011;43493;53.098;6.064;2023-02-19T03:30:23;9.43;;;5.17;;
57663;SDS011;43493;53.098;6.064;2023-02-19T03:33:03;10.93;;;4.90;;
57663;SDS011;43493;53.098;6.064;2023-02-19T03:35:35;9.13;;;5.20;;
57663;SDS011;43493;53.098;6.064;2023-02-19T03:38:41;7.47;;;4.53;;
57663;SDS011;43493;53.098;6.064;2023-02-19T03:43:41;7.03;;;4.53;;
57663;SDS011;43493;53.098;6.064;2023-02-19T03:48:51;7.40;;;4.55;;
57663;SDS011;43493;53.098;6.064;2023-02-19T03:56:34;6.70;;;4.80;;
57663;SDS011;43493;53.098;6.064;2023-02-19T03:59:13;7.27;;;4.60;;
57663;SDS011;43493;53.098;6.064;2023-02-19T04:01:49;7.57;;;5.10;;
57663;SDS011;43493;53.098;6.064;2023-02-19T04:04:53;6.53;;;4.60;;
57663;SDS011;43493;53.098;6.064;2023-02-19T04:07:20;9.63;;;5.13;;
57663;SDS011;43493;53.098;6.064;2023-02-19T04:09:48;6.33;;;3.70;;
57663;SDS011;43493;53.098;6.064;2023-02-19T04:12:14;6.23;;;4.13;;
57663;SDS011;43493;53.098;6.064;2023-02-19T04:17:25;5.30;;;3.63;;
57663;SDS011;43493;53.098;6.064;2023-02-19T04:20:25;6.33;;;3.70;;
57663;SDS011;43493;53.098;6.064;2023-02-19T04:22:54;5.43;;;3.50;;
57663;SDS011;43493;53.098;6.064;2023-02-19T04:25:20;6.40;;;3.50;;
57663;SDS011;43493;53.098;6.064;2023-02-19T04:27:47;5.77;;;3.20;;
57663;SDS011;43493;53.098;6.064;2023-02-19T04:30:14;6.93;;;3.60;;
57663;SDS011;43493;53.098;6.064;2023-02-19T04:32:40;6.53;;;3.13;;
57663;SDS011;43493;53.098;6.064;2023-02-19T04:35:06;6.67;;;3.90;;
57663;SDS011;43493;53.098;6.064;2023-02-19T04:37:31;5.40;;;3.00;;
57663;SDS011;43493;53.098;6.064;2023-02-19T04:39:57;5.47;;;3.30;;
57663;SDS011;43493;53.098;6.064;2023-02-19T04:42:23;6.33;;;3.37;;
57663;SDS011;43493;53.098;6.064;2023-02-19T04:44:49;6.60;;;3.10;;
57663;SDS011;43493;53.098;6.064;2023-02-19T04:47:14;5.67;;;2.80;;
57663;SDS011;43493;53.098;6.064;2023-02-19T04:49:43;4.97;;;2.77;;
57663;SDS011;43493;53.098;6.064;2023-02-19T04:52:10;4.67;;;2.27;;
57663;SDS011;43493;53.098;6.064;2023-02-19T04:54:35;4.13;;;2.40;;
57663;SDS011;43493;53.098;6.064;2023-02-19T04:57:01;5.47;;;2.40;;
57663;SDS011;43493;53.098;6.064;2023-02-19T04:59:27;5.23;;;2.30;;
57663;SDS011;43493;53.098;6.064;2023-02-19T05:01:53;4.77;;;2.17;;
57663;SDS011;43493;53.098;6.064;2023-02-19T05:04:18;4.70;;;2.03;;
57663;SDS011;43493;53.098;6.064;2023-02-19T05:06:44;3.67;;;1.90;;
57663;SDS011;43493;53.098;6.064;2023-02-19T05:09:10;4.27;;;1.90;;
57663;SDS011;43493;53.098;6.064;2023-02-19T05:11:35;3.93;;;2.10;;
57663;SDS011;43493;53.098;6.064;2023-02-19T05:14:01;5.30;;;2.50;;
57663;SDS011;43493;53.098;6.064;2023-02-19T05:16:27;4.37;;;2.10;;
57663;SDS011;43493;53.098;6.064;2023-02-19T05:18:53;3.77;;;2.20;;
57663;SDS011;43493;53.098;6.064;2023-02-19T05:21:18;5.33;;;2.60;;
57663;SDS011;43493;53.098;6.064;2023-02-19T05:23:44;4.47;;;2.47;;
57663;SDS011;43493;53.098;6.064;2023-02-19T05:26:12;4.73;;;2.43;;
57663;SDS011;43493;53.098;6.064;2023-02-19T05:28:42;5.70;;;2.80;;
57663;SDS011;43493;53.098;6.064;2023-02-19T05:31:09;7.87;;;2.70;;
57663;SDS011;43493;53.098;6.064;2023-02-19T05:33:35;5.53;;;2.63;;
57663;SDS011;43493;53.098;6.064;2023-02-19T05:36:05;5.07;;;2.30;;
57663;SDS011;43493;53.098;6.064;2023-02-19T05:38:33;5.67;;;2.40;;
57663;SDS011;43493;53.098;6.064;2023-02-19T05:41:09;5.73;;;2.40;;
57663;SDS011;43493;53.098;6.064;2023-02-19T05:43:36;4.70;;;2.50;;
57663;SDS011;43493;53.098;6.064;2023-02-19T05:46:02;7.30;;;2.60;;
57663;SDS011;43493;53.098;6.064;2023-02-19T05:48:28;6.23;;;2.60;;
57663;SDS011;43493;53.098;6.064;2023-02-19T05:50:59;5.87;;;2.60;;
57663;SDS011;43493;53.098;6.064;2023-02-19T05:53:29;5.15;;;2.70;;
57663;SDS011;43493;53.098;6.064;2023-02-19T05:55:55;5.30;;;3.00;;
57663;SDS011;43493;53.098;6.064;2023-02-19T05:58:21;8.07;;;3.83;;
57663;SDS011;43493;53.098;6.064;2023-02-19T06:00:47;6.97;;;3.50;;
57663;SDS011;43493;53.098;6.064;2023-02-19T06:03:12;7.07;;;3.63;;
57663;SDS011;43493;53.098;6.064;2023-02-19T06:05:38;5.97;;;3.10;;
57663;SDS011;43493;53.098;6.064;2023-02-19T06:08:04;4.90;;;2.50;;
57663;SDS011;43493;53.098;6.064;2023-02-19T06:10:30;4.03;;;1.77;;
57663;SDS011;43493;53.098;6.064;2023-02-19T06:12:56;4.80;;;1.47;;
57663;SDS011;43493;53.098;6.064;2023-02-19T06:15:21;2.80;;;1.30;;
57663;SDS011;43493;53.098;6.064;2023-02-19T06:17:47;4.27;;;1.60;;
57663;SDS011;43493;53.098;6.064;2023-02-19T06:20:13;4.40;;;1.60;;
57663;SDS011;43493;53.098;6.064;2023-02-19T06:22:39;4.23;;;1.63;;
57663;SDS011;43493;53.098;6.064;2023-02-19T06:25:05;3.67;;;1.77;;
57663;SDS011;43493;53.098;6.064;2023-02-19T06:27:32;3.93;;;1.40;;
57663;SDS011;43493;53.098;6.064;2023-02-19T06:29:58;3.90;;;1.40;;
57663;SDS011;43493;53.098;6.064;2023-02-19T06:32:24;4.07;;;1.30;;
57663;SDS011;43493;53.098;6.064;2023-02-19T06:34:49;4.70;;;1.50;;
57663;SDS011;43493;53.098;6.064;2023-02-19T06:37:15;3.40;;;1.20;;
57663;SDS011;43493;53.098;6.064;2023-02-19T06:39:41;3.07;;;1.30;;
57663;SDS011;43493;53.098;6.064;2023-02-19T06:42:07;3.13;;;1.50;;
57663;SDS011;43493;53.098;6.064;2023-02-19T06:44:33;5.00;;;1.43;;
57663;SDS011;43493;53.098;6.064;2023-02-19T06:46:59;4.10;;;1.20;;
57663;SDS011;43493;53.098;6.064;2023-02-19T06:49:25;5.17;;;1.37;;
57663;SDS011;43493;53.098;6.064;2023-02-19T06:51:50;3.73;;;1.23;;
57663;SDS011;43493;53.098;6.064;2023-02-19T06:54:16;4.60;;;1.30;;
57663;SDS011;43493;53.098;6.064;2023-02-19T06:56:42;3.70;;;1.57;;
57663;SDS011;43493;53.098;6.064;2023-02-19T06:59:09;5.57;;;1.77;;
57663;SDS011;43493;53.098;6.064;2023-02-19T07:01:38;4.73;;;1.73;;
57663;SDS011;43493;53.098;6.064;2023-02-19T07:04:05;5.07;;;1.70;;
57663;SDS011;43493;53.098;6.064;2023-02-19T07:06:31;4.43;;;1.30;;
57663;SDS011;43493;53.098;6.064;2023-02-19T07:08:58;4.37;;;1.30;;
57663;SDS011;43493;53.098;6.064;2023-02-19T07:11:24;5.83;;;1.43;;
57663;SDS011;43493;53.098;6.064;2023-02-19T07:13:54;4.33;;;1.17;;
57663;SDS011;43493;53.098;6.064;2023-02-19T07:16:20;4.80;;;1.33;;
57663;SDS011;43493;53.098;6.064;2023-02-19T07:18:47;8.17;;;1.67;;
57663;SDS011;43493;53.098;6.064;2023-02-19T07:21:13;3.50;;;1.50;;
57663;SDS011;43493;53.098;6.064;2023-02-19T07:23:40;3.87;;;1.80;;
57663;SDS011;43493;53.098;6.064;2023-02-19T07:26:10;3.33;;;1.30;;
57663;SDS011;43493;53.098;6.064;2023-02-19T07:28:44;6.40;;;1.53;;
57663;SDS011;43493;53.098;6.064;2023-02-19T07:31:12;2.97;;;1.47;;
57663;SDS011;43493;53.098;6.064;2023-02-19T07:33:38;3.67;;;1.50;;
57663;SDS011;43493;53.098;6.064;2023-02-19T07:36:06;3.40;;;1.50;;
57663;SDS011;43493;53.098;6.064;2023-02-19T07:38:32;2.97;;;1.30;;
57663;SDS011;43493;53.098;6.064;2023-02-19T07:40:59;3.97;;;1.30;;
57663;SDS011;43493;53.098;6.064;2023-02-19T07:43:26;5.77;;;1.67;;
57663;SDS011;43493;53.098;6.064;2023-02-19T07:45:54;5.23;;;1.50;;
57663;SDS011;43493;53.098;6.064;2023-02-19T07:48:19;3.73;;;1.70;;
57663;SDS011;43493;53.098;6.064;2023-02-19T07:50:52;5.10;;;1.70;;
57663;SDS011;43493;53.098;6.064;2023-02-19T07:53:19;4.87;;;1.50;;
57663;SDS011;43493;53.098;6.064;2023-02-19T07:55:45;3.53;;;1.50;;
57663;SDS011;43493;53.098;6.064;2023-02-19T07:58:11;3.43;;;1.00;;
57663;SDS011;43493;53.098;6.064;2023-02-19T08:00:37;5.50;;;1.40;;
57663;SDS011;43493;53.098;6.064;2023-02-19T08:03:03;5.63;;;1.60;;
57663;SDS011;43493;53.098;6.064;2023-02-19T08:05:30;6.00;;;1.70;;
57663;SDS011;43493;53.098;6.064;2023-02-19T08:08:02;3.53;;;1.80;;
57663;SDS011;43493;53.098;6.064;2023-02-19T08:10:30;4.37;;;1.73;;
57663;SDS011;43493;53.098;6.064;2023-02-19T08:13:15;5.33;;;1.70;;
57663;SDS011;43493;53.098;6.064;2023-02-19T08:15:44;4.97;;;1.90;;
57663;SDS011;43493;53.098;6.064;2023-02-19T08:18:11;6.37;;;2.30;;
57663;SDS011;43493;53.098;6.064;2023-02-19T08:20:38;5.90;;;1.80;;
57663;SDS011;43493;53.098;6.064;2023-02-19T08:23:04;6.90;;;3.23;;
57663;SDS011;43493;53.098;6.064;2023-02-19T08:25:30;3.87;;;2.10;;
57663;SDS011;43493;53.098;6.064;2023-02-19T08:27:56;7.20;;;2.30;;
57663;SDS011;43493;53.098;6.064;2023-02-19T08:30:24;7.30;;;2.07;;
57663;SDS011;43493;53.098;6.064;2023-02-19T08:32:50;5.13;;;1.93;;
57663;SDS011;43493;53.098;6.064;2023-02-19T08:35:16;4.07;;;1.90;;
57663;SDS011;43493;53.098;6.064;2023-02-19T08:37:42;5.63;;;1.97;;
57663;SDS011;43493;53.098;6.064;2023-02-19T08:40:08;5.93;;;1.80;;
57663;SDS011;43493;53.098;6.064;2023-02-19T08:42:34;3.40;;;1.40;;
57663;SDS011;43493;53.098;6.064;2023-02-19T08:45:00;5.57;;;1.80;;
57663;SDS011;43493;53.098;6.064;2023-02-19T08:47:26;6.67;;;1.63;;
57663;SDS011;43493;53.098;6.064;2023-02-19T08:49:51;4.43;;;2.00;;
57663;SDS011;43493;53.098;6.064;2023-02-19T08:52:17;3.27;;;1.50;;
57663;SDS011;43493;53.098;6.064;2023-02-19T08:54:43;5.37;;;1.63;;
57663;SDS011;43493;53.098;6.064;2023-02-19T08:57:08;4.03;;;1.60;;
57663;SDS011;43493;53.098;6.064;2023-02-19T08:59:34;5.40;;;1.77;;
57663;SDS011;43493;53.098;6.064;2023-02-19T09:02:00;5.33;;;1.70;;
57663;SDS011;43493;53.098;6.064;2023-02-19T09:04:26;3.80;;;1.37;;
57663;SDS011;43493;53.098;6.064;2023-02-19T09:06:52;5.47;;;1.90;;
57663;SDS011;43493;53.098;6.064;2023-02-19T09:09:18;3.90;;;1.60;;
57663;SDS011;43493;53.098;6.064;2023-02-19T09:11:44;4.97;;;1.83;;
57663;SDS011;43493;53.098;6.064;2023-02-19T09:14:10;3.60;;;1.57;;
57663;SDS011;43493;53.098;6.064;2023-02-19T09:16:35;4.97;;;1.97;;
57663;SDS011;43493;53.098;6.064;2023-02-19T09:19:02;3.97;;;1.50;;
57663;SDS011;43493;53.098;6.064;2023-02-19T09:21:28;4.10;;;1.40;;
57663;SDS011;43493;53.098;6.064;2023-02-19T09:23:54;3.43;;;1.90;;
57663;SDS011;43493;53.098;6.064;2023-02-19T09:26:20;4.77;;;2.07;;
57663;SDS011;43493;53.098;6.064;2023-02-19T09:28:46;3.43;;;1.50;;
57663;SDS011;43493;53.098;6.064;2023-02-19T09:31:13;3.70;;;1.10;;
57663;SDS011;43493;53.098;6.064;2023-02-19T09:33:43;4.20;;;1.20;;
57663;SDS011;43493;53.098;6.064;2023-02-19T09:36:10;3.83;;;1.03;;
57663;SDS011;43493;53.098;6.064;2023-02-19T09:38:36;2.97;;;1.37;;
57663;SDS011;43493;53.098;6.064;2023-02-19T09:41:08;3.23;;;1.37;;
57663;SDS011;43493;53.098;6.064;2023-02-19T09:43:39;4.77;;;1.50;;
57663;SDS011;43493;53.098;6.064;2023-02-19T09:46:10;5.60;;;1.40;;
57663;SDS011;43493;53.098;6.064;2023-02-19T09:48:48;3.07;;;1.20;;
57663;SDS011;43493;53.098;6.064;2023-02-19T09:51:14;4.93;;;1.37;;
57663;SDS011;43493;53.098;6.064;2023-02-19T09:53:42;3.47;;;1.40;;
57663;SDS011;43493;53.098;6.064;2023-02-19T09:56:10;4.03;;;1.23;;
57663;SDS011;43493;53.098;6.064;2023-02-19T09:58:45;3.27;;;0.93;;
57663;SDS011;43493;53.098;6.064;2023-02-19T10:01:13;5.33;;;1.60;;
57663;SDS011;43493;53.098;6.064;2023-02-19T10:03:46;6.20;;;1.57;;
57663;SDS011;43493;53.098;6.064;2023-02-19T10:06:15;2.97;;;1.07;;
57663;SDS011;43493;53.098;6.064;2023-02-19T10:08:46;3.50;;;1.00;;
57663;SDS011;43493;53.098;6.064;2023-02-19T10:11:14;5.80;;;1.20;;
57663;SDS011;43493;53.098;6.064;2023-02-19T10:13:41;5.87;;;1.53;;
57663;SDS011;43493;53.098;6.064;2023-02-19T10:16:12;4.93;;;1.10;;
57663;SDS011;43493;53.098;6.064;2023-02-19T10:18:42;4.77;;;1.00;;
57663;SDS011;43493;53.098;6.064;2023-02-19T10:21:10;3.57;;;1.10;;
57663;SDS011;43493;53.098;6.064;2023-02-19T10:23:40;4.13;;;1.27;;
57663;SDS011;43493;53.098;6.064;2023-02-19T10:26:08;4.27;;;1.33;;
57663;SDS011;43493;53.098;6.064;2023-02-19T10:28:34;3.43;;;1.40;;
57663;SDS011;43493;53.098;6.064;2023-02-19T10:31:01;5.07;;;1.10;;
57663;SDS011;43493;53.098;6.064;2023-02-19T10:33:28;5.67;;;1.47;;
57663;SDS011;43493;53.098;6.064;2023-02-19T10:35:56;4.43;;;1.67;;
57663;SDS011;43493;53.098;6.064;2023-02-19T10:38:33;3.83;;;0.90;;
57663;SDS011;43493;53.098;6.064;2023-02-19T10:43:39;5.10;;;1.80;;
57663;SDS011;43493;53.098;6.064;2023-02-19T10:46:22;5.43;;;3.10;;
57663;SDS011;43493;53.098;6.064;2023-02-19T10:51:24;3.13;;;1.23;;
57663;SDS011;43493;53.098;6.064;2023-02-19T10:54:06;5.13;;;1.87;;
57663;SDS011;43493;53.098;6.064;2023-02-19T10:56:48;5.53;;;2.87;;
57663;SDS011;43493;53.098;6.064;2023-02-19T11:04:46;3.87;;;1.10;;
57663;SDS011;43493;53.098;6.064;2023-02-19T11:07:47;5.50;;;1.70;;
57663;SDS011;43493;53.098;6.064;2023-02-19T11:13:06;5.27;;;1.00;;
57663;SDS011;43493;53.098;6.064;2023-02-19T11:15:39;4.13;;;1.03;;
57663;SDS011;43493;53.098;6.064;2023-02-19T11:18:18;4.80;;;1.33;;
57663;SDS011;43493;53.098;6.064;2023-02-19T11:20:48;4.63;;;1.03;;
57663;SDS011;43493;53.098;6.064;2023-02-19T11:23:19;5.90;;;2.20;;
57663;SDS011;43493;53.098;6.064;2023-02-19T11:26:14;5.00;;;2.07;;
57663;SDS011;43493;53.098;6.064;2023-02-19T11:28:45;5.73;;;1.43;;
57663;SDS011;43493;53.098;6.064;2023-02-19T11:31:27;3.73;;;1.33;;
57663;SDS011;43493;53.098;6.064;2023-02-19T11:37:13;4.70;;;1.20;;
57663;SDS011;43493;53.098;6.064;2023-02-19T11:39:44;3.30;;;1.20;;
57663;SDS011;43493;53.098;6.064;2023-02-19T11:50:23;3.77;;;1.50;;
57663;SDS011;43493;53.098;6.064;2023-02-19T12:12:18;2.33;;;0.80;;
57663;SDS011;43493;53.098;6.064;2023-02-19T12:15:01;6.67;;;1.27;;
57663;SDS011;43493;53.098;6.064;2023-02-19T12:21:21;5.80;;;1.23;;
57663;SDS011;43493;53.098;6.064;2023-02-19T12:23:32;3.47;;;1.03;;
57663;SDS011;43493;53.098;6.064;2023-02-19T12:26:18;6.43;;;1.37;;
57663;SDS011;43493;53.098;6.064;2023-02-19T12:31:34;6.23;;;1.10;;
57663;SDS011;43493;53.098;6.064;2023-02-19T12:37:17;5.17;;;1.47;;
57663;SDS011;43493;53.098;6.064;2023-02-19T12:40:13;5.40;;;1.47;;
57663;SDS011;43493;53.098;6.064;2023-02-19T12:50:56;3.80;;;1.03;;
57663;SDS011;43493;53.098;6.064;2023-02-19T12:56:23;6.37;;;1.07;;
57663;SDS011;43493;53.098;6.064;2023-02-19T12:58:57;2.93;;;0.90;;
57663;SDS011;43493;53.098;6.064;2023-02-19T13:09:38;5.03;;;1.37;;
57663;SDS011;43493;53.098;6.064;2023-02-19T13:12:13;6.13;;;1.53;;
57663;SDS011;43493;53.098;6.064;2023-02-19T13:14:45;9.17;;;1.83;;
57663;SDS011;43493;53.098;6.064;2023-02-19T13:20:07;4.77;;;1.60;;
57663;SDS011;43493;53.098;6.064;2023-02-19T13:22:44;5.87;;;1.33;;
57663;SDS011;43493;53.098;6.064;2023-02-19T13:36:58;7.27;;;1.37;;
57663;SDS011;43493;53.098;6.064;2023-02-19T13:39:25;5.77;;;1.77;;
57663;SDS011;43493;53.098;6.064;2023-02-19T13:41:52;7.87;;;1.30;;
57663;SDS011;43493;53.098;6.064;2023-02-19T13:44:38;8.20;;;1.30;;
57663;SDS011;43493;53.098;6.064;2023-02-19T13:47:05;7.25;;;1.30;;
57663;SDS011;43493;53.098;6.064;2023-02-19T13:50:16;7.97;;;1.38;;
57663;SDS011;43493;53.098;6.064;2023-02-19T13:52:46;5.93;;;1.40;;
57663;SDS011;43493;53.098;6.064;2023-02-19T14:01:15;9.53;;;1.63;;
57663;SDS011;43493;53.098;6.064;2023-02-19T14:04:06;7.95;;;1.40;;
57663;SDS011;43493;53.098;6.064;2023-02-19T14:14:54;6.50;;;1.63;;
57663;SDS011;43493;53.098;6.064;2023-02-19T14:33:27;7.90;;;1.60;;
57663;SDS011;43493;53.098;6.064;2023-02-19T14:36:05;6.63;;;1.63;;
57663;SDS011;43493;53.098;6.064;2023-02-19T14:38:56;7.27;;;1.30;;
57663;SDS011;43493;53.098;6.064;2023-02-19T14:41:29;6.07;;;1.77;;
57663;SDS011;43493;53.098;6.064;2023-02-19T14:43:57;7.30;;;1.63;;
57663;SDS011;43493;53.098;6.064;2023-02-19T14:46:33;6.77;;;1.60;;
57663;SDS011;43493;53.098;6.064;2023-02-19T14:51:52;10.73;;;1.70;;
57663;SDS011;43493;53.098;6.064;2023-02-19T14:54:33;6.60;;;1.30;;
57663;SDS011;43493;53.098;6.064;2023-02-19T14:57:09;6.57;;;1.90;;
57663;SDS011;43493;53.098;6.064;2023-02-19T14:59:39;10.07;;;2.20;;
57663;SDS011;43493;53.098;6.064;2023-02-19T15:02:18;8.57;;;1.73;;
57663;SDS011;43493;53.098;6.064;2023-02-19T15:04:45;9.47;;;1.40;;
57663;SDS011;43493;53.098;6.064;2023-02-19T15:07:17;3.83;;;1.27;;
57663;SDS011;43493;53.098;6.064;2023-02-19T15:09:48;8.30;;;1.67;;
57663;SDS011;43493;53.098;6.064;2023-02-19T15:12:17;5.73;;;1.30;;
57663;SDS011;43493;53.098;6.064;2023-02-19T15:14:46;7.73;;;2.00;;
57663;SDS011;43493;53.098;6.064;2023-02-19T15:17:15;7.43;;;1.60;;
57663;SDS011;43493;53.098;6.064;2023-02-19T15:19:47;9.93;;;1.50;;
57663;SDS011;43493;53.098;6.064;2023-02-19T15:22:18;6.90;;;1.33;;
57663;SDS011;43493;53.098;6.064;2023-02-19T15:24:45;8.97;;;2.17;;
57663;SDS011;43493;53.098;6.064;2023-02-19T15:27:16;8.63;;;1.50;;
57663;SDS011;43493;53.098;6.064;2023-02-19T15:29:44;8.10;;;1.70;;
57663;SDS011;43493;53.098;6.064;2023-02-19T15:32:18;11.77;;;2.50;;
57663;SDS011;43493;53.098;6.064;2023-02-19T15:35:00;4.67;;;1.47;;
57663;SDS011;43493;53.098;6.064;2023-02-19T15:37:28;6.93;;;1.40;;
57663;SDS011;43493;53.098;6.064;2023-02-19T15:39:57;7.80;;;2.50;;
57663;SDS011;43493;53.098;6.064;2023-02-19T15:42:28;7.23;;;1.43;;
57663;SDS011;43493;53.098;6.064;2023-02-19T15:44:57;7.33;;;1.27;;
57663;SDS011;43493;53.098;6.064;2023-02-19T15:47:50;7.93;;;1.58;;
57663;SDS011;43493;53.098;6.064;2023-02-19T15:50:29;8.77;;;1.50;;
57663;SDS011;43493;53.098;6.064;2023-02-19T15:53:01;10.87;;;2.00;;
57663;SDS011;43493;53.098;6.064;2023-02-19T15:55:44;5.20;;;1.73;;
57663;SDS011;43493;53.098;6.064;2023-02-19T15:58:45;5.10;;;1.17;;
57663;SDS011;43493;53.098;6.064;2023-02-19T16:01:32;7.90;;;1.50;;
57663;SDS011;43493;53.098;6.064;2023-02-19T16:04:00;7.93;;;1.40;;
57663;SDS011;43493;53.098;6.064;2023-02-19T16:06:27;7.10;;;1.93;;
57663;SDS011;43493;53.098;6.064;2023-02-19T16:22:07;8.37;;;1.40;;
57663;SDS011;43493;53.098;6.064;2023-02-19T16:24:47;7.63;;;1.70;;
57663;SDS011;43493;53.098;6.064;2023-02-19T16:27:38;7.83;;;1.37;;
57663;SDS011;43493;53.098;6.064;2023-02-19T16:30:17;8.23;;;1.80;;
57663;SDS011;43493;53.098;6.064;2023-02-19T16:35:47;7.53;;;1.53;;
57663;SDS011;43493;53.098;6.064;2023-02-19T16:38:16;7.10;;;1.50;;
57663;SDS011;43493;53.098;6.064;2023-02-19T16:46:06;12.07;;;2.00;;
57663;SDS011;43493;53.098;6.064;2023-02-19T16:48:34;8.83;;;1.70;;
57663;SDS011;43493;53.098;6.064;2023-02-19T16:51:00;6.77;;;1.53;;
57663;SDS011;43493;53.098;6.064;2023-02-19T16:53:27;7.70;;;1.60;;
57663;SDS011;43493;53.098;6.064;2023-02-19T16:55:53;8.37;;;1.70;;
57663;SDS011;43493;53.098;6.064;2023-02-19T16:58:19;10.80;;;2.07;;
57663;SDS011;43493;53.098;6.064;2023-02-19T17:00:45;9.10;;;2.83;;
57663;SDS011;43493;53.098;6.064;2023-02-19T17:03:15;9.57;;;1.70;;
57663;SDS011;43493;53.098;6.064;2023-02-19T17:05:43;7.50;;;1.70;;
57663;SDS011;43493;53.098;6.064;2023-02-19T17:10:57;7.17;;;1.63;;
57663;SDS011;43493;53.098;6.064;2023-02-19T17:13:24;8.80;;;2.00;;
57663;SDS011;43493;53.098;6.064;2023-02-19T17:15:50;12.53;;;2.83;;
57663;SDS011;43493;53.098;6.064;2023-02-19T17:18:16;9.53;;;2.07;;
57663;SDS011;43493;53.098;6.064;2023-02-19T17:20:42;10.13;;;2.90;;
57663;SDS011;43493;53.098;6.064;2023-02-19T17:23:13;11.87;;;2.50;;
57663;SDS011;43493;53.098;6.064;2023-02-19T17:25:39;8.20;;;1.93;;
57663;SDS011;43493;53.098;6.064;2023-02-19T17:28:05;5.53;;;1.63;;
57663;SDS011;43493;53.098;6.064;2023-02-19T17:30:31;8.70;;;2.70;;
57663;SDS011;43493;53.098;6.064;2023-02-19T17:32:57;9.10;;;3.07;;
57663;SDS011;43493;53.098;6.064;2023-02-19T17:35:23;8.37;;;2.60;;
57663;SDS011;43493;53.098;6.064;2023-02-19T17:37:50;8.07;;;2.40;;
57663;SDS011;43493;53.098;6.064;2023-02-19T17:40:29;8.10;;;2.13;;
57663;SDS011;43493;53.098;6.064;2023-02-19T17:42:56;11.00;;;2.30;;
57663;SDS011;43493;53.098;6.064;2023-02-19T17:45:21;6.07;;;1.60;;
57663;SDS011;43493;53.098;6.064;2023-02-19T17:47:48;8.33;;;1.60;;
57663;SDS011;43493;53.098;6.064;2023-02-19T17:50:18;7.17;;;1.83;;
57663;SDS011;43493;53.098;6.064;2023-02-19T17:52:46;8.63;;;2.00;;
57663;SDS011;43493;53.098;6.064;2023-02-19T17:55:12;7.13;;;2.10;;
57663;SDS011;43493;53.098;6.064;2023-02-19T17:57:42;6.07;;;1.60;;
57663;SDS011;43493;53.098;6.064;2023-02-19T18:00:12;7.53;;;1.93;;